»·PEaware :: N714LF KSMO-KTOA

N714LF :: KSMO-KTOA

FLIGHT INFORMATION

Flight Status: Arrived
Operator: Privately registered:
United States
More flights under this callsign
Pilot: David R. (15748)
Aircraft: CESSNA 172 SKYHAWK
(C172)
More flights by this aircraft type
Origin: KSMO Santa Monica Mun
United States
Destination: KTOA Zamperini
United States
More flights between these airports :: More routes between these airports
Route: +SMO SMO125 V64 SLI
File this flight plan on PilotEdge
Remarks: vectors to final for ils 29R
Altitude:
(Current/Filed)
5,000ft
Speed:
(Current/Filed)
100kts
Departed: 28-Dec-17 04:22 PM
Arrived: 28-Dec-17 04:55 PM
Distance/Time
Traveled:
14nm/0:33
Distance/Time
To Go:
Arrived

Flight Plot

Page will automatically refresh every two minutes.


Map Options




Map Legend


Flown Route
Filed Route
Departure Airport
Arrival Airport
Navaid (VOR, NDB)
Fix

Horizontal Profiles

Position Reports

Time Latitude Longitude Heading Altitude Ground
Speed
28-Dec-17 15:46 34.018457 -118.445837 60 178ft 0kts
28-Dec-17 15:47 34.018457 -118.445837 60 178ft 0kts
28-Dec-17 15:48 34.018457 -118.445837 60 178ft 0kts
28-Dec-17 15:49 34.018457 -118.445836 60 178ft 0kts
28-Dec-17 15:50 34.018457 -118.445836 60 178ft 0kts
28-Dec-17 15:51 34.018458 -118.445836 60 178ft 0kts
28-Dec-17 15:52 34.018458 -118.445835 60 178ft 0kts
28-Dec-17 15:53 34.018458 -118.445835 60 178ft 0kts
28-Dec-17 15:54 34.018458 -118.445835 60 178ft 0kts
28-Dec-17 15:55 34.018458 -118.445834 60 178ft 0kts
28-Dec-17 15:56 34.018458 -118.445834 60 178ft 0kts
28-Dec-17 15:57 34.018459 -118.445833 60 178ft 0kts
28-Dec-17 15:58 34.018459 -118.445833 60 178ft 0kts
28-Dec-17 15:59 34.018459 -118.445833 60 178ft 0kts
28-Dec-17 16:00 34.018459 -118.445832 60 178ft 0kts
28-Dec-17 16:01 34.018459 -118.445832 60 178ft 0kts
28-Dec-17 16:02 34.018459 -118.445832 60 178ft 0kts
28-Dec-17 16:03 34.018460 -118.445831 60 178ft 0kts
28-Dec-17 16:04 34.018460 -118.445831 60 178ft 0kts
28-Dec-17 16:05 34.018460 -118.445831 60 178ft 0kts
28-Dec-17 16:06 34.018460 -118.445830 60 178ft 0kts
28-Dec-17 16:07 34.018460 -118.445830 60 178ft 0kts
28-Dec-17 16:08 34.018460 -118.445830 60 178ft 0kts
28-Dec-17 16:09 34.018461 -118.445829 60 178ft 0kts
28-Dec-17 16:10 34.018461 -118.445829 60 178ft 0kts
28-Dec-17 16:11 34.018461 -118.445829 60 178ft 0kts
28-Dec-17 16:12 34.018461 -118.445828 60 178ft 0kts
28-Dec-17 16:13 34.018461 -118.445828 60 178ft 0kts
28-Dec-17 16:14 34.018461 -118.445828 60 178ft 0kts
28-Dec-17 16:15 34.018462 -118.445827 60 178ft 0kts
28-Dec-17 16:16 34.018462 -118.445827 60 178ft 0kts
28-Dec-17 16:17 34.018462 -118.445826 60 178ft 0kts
28-Dec-17 16:18 34.018462 -118.445826 60 178ft 0kts
28-Dec-17 16:19 34.018462 -118.445826 60 178ft 0kts
28-Dec-17 16:20 34.018462 -118.445825 60 178ft 0kts
28-Dec-17 16:21 34.018463 -118.445825 60 178ft 0kts
28-Dec-17 16:22 34.018463 -118.445825 60 178ft 0kts
28-Dec-17 16:23 34.019141 -118.445723 344 178ft 5kts
28-Dec-17 16:24 34.019773 -118.445626 350 178ft 0kts
28-Dec-17 16:25 34.019773 -118.445626 350 178ft 0kts
28-Dec-17 16:26 34.019773 -118.445626 350 178ft 0kts
28-Dec-17 16:27 34.020033 -118.445679 350 178ft 6kts
28-Dec-17 16:28 34.011276 -118.456621 224 449ft 82kts
28-Dec-17 16:29 33.995291 -118.475494 224 1380ft 75kts
28-Dec-17 16:30 33.995056 -118.501686 271 1919ft 100kts
28-Dec-17 16:31 33.994492 -118.534516 270 2610ft 95kts
28-Dec-17 16:32 33.994889 -118.565721 270 3293ft 91kts
28-Dec-17 16:33 33.995085 -118.596277 270 3949ft 92kts
28-Dec-17 16:34 34.008450 -118.612678 49 4020ft 112kts
28-Dec-17 16:35 34.011625 -118.574728 91 4000ft 117kts
28-Dec-17 16:36 34.009530 -118.535311 91 3999ft 117kts
28-Dec-17 16:37 33.999753 -118.500481 142 4013ft 119kts
28-Dec-17 16:38 33.971498 -118.479008 143 4000ft 120kts
28-Dec-17 16:39 33.943891 -118.456239 143 3999ft 119kts
28-Dec-17 16:40 33.916512 -118.433670 143 3999ft 120kts
28-Dec-17 16:41 33.888833 -118.410819 143 4000ft 120kts
28-Dec-17 16:42 33.860518 -118.389451 143 3999ft 119kts
28-Dec-17 16:43 33.832653 -118.367308 143 4000ft 120kts
28-Dec-17 16:44 33.803827 -118.343987 143 3515ft 127kts
28-Dec-17 16:45 33.774393 -118.320845 143 3003ft 121kts
28-Dec-17 16:46 33.749066 -118.298651 143 2997ft 108kts
28-Dec-17 16:47 33.724373 -118.278016 143 3000ft 109kts
28-Dec-17 16:48 33.698840 -118.258269 143 3000ft 108kts
28-Dec-17 16:49 33.674528 -118.236983 143 2999ft 107kts
28-Dec-17 16:50 33.650389 -118.215852 143 3000ft 107kts
28-Dec-17 16:51 33.626159 -118.194648 143 3000ft 107kts
28-Dec-17 16:52 33.611728 -118.169565 36 2995ft 106kts
28-Dec-17 16:53 33.638494 -118.181189 332 3000ft 107kts
28-Dec-17 16:54 33.666960 -118.188197 14 2807ft 119kts
28-Dec-17 16:55 33.698746 -118.192607 325 2357ft 112kts
28-Dec-17 16:56 33.721515 -118.218339 309 2015ft 110kts
28-Dec-17 16:57 33.740314 -118.244942 310 2006ft 105kts
28-Dec-17 16:58 33.759383 -118.272874 308 1788ft 111kts
28-Dec-17 16:59 33.777247 -118.299847 308 1036ft 88kts
28-Dec-17 17:00 33.791153 -118.320474 308 459ft 77kts
28-Dec-17 17:01 33.802841 -118.337739 307 106ft 40kts
28-Dec-17 17:02 33.805712 -118.343111 285 106ft 0kts
28-Dec-17 17:03 33.805376 -118.345867 221 106ft 15kts

Navigation Log

Ident Type
1. KSMO Airport
2. SMO Navaid
3. SLI Navaid
4. KTOA Airport